Buoy 13516

sailwx.info

Track history (hours):
 
Tides and Currents Weather Stations Pressure Air Temp Water Temp Dewpoint Dewpoint Depression Visibility Wind Speed Wind Dir Waves Ship Positions

Ao Chao Yang 13516

Last reported at 2014-Sep-03 00:29 UTC. Time now 2014-Sep-03 02:18 UTC.
Position N 27°41' W 037°17'.

Length 20 m.

Type: Fishing. MMSI: 412469022.

Water temperature 27.9 ° C

Date/timePositionNaut miles runAvg speedWind from/ knotsBaromVisibWave heightAir tempDewpointWater temp
2014-Sep-03 00:29N 27°41' W 037°17'0 0.2 27.9
2014-Sep-02 22:48N 27°41' W 037°17'1 3.6 28.1
2014-Sep-02 22:38N 27°41' W 037°17'0 0.0 28.1
2014-Sep-02 21:53N 27°41' W 037°17'138.2
2014-Sep-02 21:51N 27°41' W 037°16'0 0.0 28.2
2014-Sep-02 20:29N 27°41' W 037°16'0 0.2 28.4
2014-Sep-02 19:53N 27°41' W 037°16'0 0.0
2014-Sep-02 19:36N 27°41' W 037°16'0 0.4 28.7
2014-Sep-02 18:53N 27°41' W 037°16'0 0.5 28.7
2014-Sep-02 18:15N 27°41' W 037°16'1 2.1 28.8
2014-Sep-02 17:53N 27°41' W 037°15'1 2.3 29.0
2014-Sep-02 17:35N 27°41' W 037°16'0 0.0 29.1
2014-Sep-02 16:30N 27°41' W 037°16'0 0.0 28.6
2014-Sep-02 15:53N 27°41' W 037°16'0 0.2 28.7
2014-Sep-02 14:14N 27°41' W 037°16'0 0.3 28.4
2014-Sep-02 14:00N 27°41' W 037°16'0 0.2 28.4
2014-Sep-02 12:18N 27°42' W 037°16'0 0.0 27.9
2014-Sep-02 12:12N 27°42' W 037°16'0 0.0 27.9
2014-Sep-02 11:32N 27°42' W 037°16'1 5.4 27.7
2014-Sep-02 11:26N 27°41' W 037°16'0 0.0 27.7
2014-Sep-02 10:38N 27°41' W 037°16'0 3.2
2014-Sep-02 10:35N 27°41' W 037°16'0 0.0 27.6
2014-Sep-02 09:57N 27°41' W 037°16'0 3.0 27.6
2014-Sep-02 09:53N 27°41' W 037°17'0 0.0 27.6
2014-Sep-02 08:29N 27°41' W 037°17'0 0.3 27.6
2014-Sep-02 06:47N 27°41' W 037°17'0 9.9 27.6
2014-Sep-02 06:44N 27°41' W 037°17'0 0.0 27.6
2014-Sep-02 06:41N 27°41' W 037°17'0 0.1 27.6
2014-Sep-02 06:17N 27°41' W 037°17'0 0.0 27.6
2014-Sep-02 06:08N 27°41' W 037°17'0 0.1 27.6
2014-Sep-02 04:33N 27°41' W 037°17'0 2.2 27.6
2014-Sep-02 04:27N 27°41' W 037°16'0 0.1 27.6
2014-Sep-02 01:33N 27°42' W 037°16'1 0.8 27.6
2014-Sep-02 00:48N 27°41' W 037°16'0 0.0 27.6
2014-Sep-01 23:59N 27°41' W 037°16'0 0.0 27.7
2014-Sep-01 23:53N 27°41' W 037°16'0 0.5 27.7
2014-Sep-01 23:06N 27°41' W 037°16'113.6 27.8
2014-Sep-01 23:02N 27°41' W 037°15'0 3.6 27.8
2014-Sep-01 22:59N 27°41' W 037°15'0 0.1 27.8
2014-Sep-01 22:17N 27°41' W 037°15'1 9.2 27.8
2014-Sep-01 22:12N 27°40' W 037°15'0 0.0 27.8
2014-Sep-01 20:06N 27°40' W 037°15'230.9 28.0
2014-Sep-01 20:03N 27°41' W 037°17'0 0.0 28.0
2014-Sep-01 19:23N 27°41' W 037°17'2 1.8
2014-Sep-01 18:27N 27°41' W 037°15'214.7 28.2
2014-Sep-01 18:20N 27°41' W 037°17'1 1.5 28.2
2014-Sep-01 17:47N 27°42' W 037°16'1 0.8 28.2
2014-Sep-01 16:44N 27°42' W 037°16'0 0.0 28.1
2014-Sep-01 16:08N 27°42' W 037°16'0 0.1 27.9
2014-Sep-01 14:26N 27°42' W 037°15'0 0.9 27.7
2014-Sep-01 14:18N 27°42' W 037°16'0 0.6 27.7
2014-Sep-01 13:32N 27°42' W 037°15'1 0.6 27.7
2014-Sep-01 12:32N 27°42' W 037°16'0 0.0 27.6
2014-Sep-01 11:53N 27°42' W 037°16'0 1.6 27.5
2014-Sep-01 11:47N 27°41' W 037°16'0 0.0 27.5
2014-Sep-01 11:00N 27°41' W 037°16'0 0.0 27.5
2014-Sep-01 10:57N 27°41' W 037°16'0 0.0 27.5
2014-Sep-01 10:53N 27°41' W 037°16'0 0.0 27.5
2014-Sep-01 08:53N 27°41' W 037°16'1 4.5 27.4
2014-Sep-01 08:45N 27°42' W 037°17'0 5.8 27.4
2014-Sep-01 08:42N 27°42' W 037°17'1 0.5 27.4
2014-Sep-01 07:08N 27°41' W 037°16'0 3.3 27.4
2014-Sep-01 07:03N 27°41' W 037°17'1 9.9 27.4
2014-Sep-01 06:57N 27°41' W 037°15'0 0.0 27.4
2014-Sep-01 06:26N 27°41' W 037°15'1 8.7 27.5
2014-Sep-01 06:20N 27°41' W 037°16'1 0.6 27.5
2014-Sep-01 04:44N 27°41' W 037°16'0 0.0 27.5
2014-Sep-01 04:38N 27°41' W 037°16'0 0.0 27.5
2014-Sep-01 03:03N 27°41' W 037°16'0 7.9 27.5
2014-Sep-01 03:00N 27°41' W 037°16'1 0.3 27.5
2014-Sep-01 01:06N 27°40' W 037°16'0 0.0 27.5
2014-Sep-01 00:18N 27°40' W 037°16'0 0.4 27.6
2014-Aug-31 23:30N 27°40' W 037°16'0 5.5 27.6
2014-Aug-31 23:26N 27°40' W 037°16'1 0.7 27.6
2014-Aug-31 22:33N 27°40' W 037°15'0 0.0 27.6
2014-Aug-31 22:30N 27°40' W 037°15'0 0.2 27.6
2014-Aug-31 20:23N 27°40' W 037°16'0 0.0 27.7
2014-Aug-31 20:14N 27°40' W 037°16'0 0.0 27.7
2014-Aug-31 19:53N 27°40' W 037°16'0 0.0 27.8
2014-Aug-31 18:45N 27°40' W 037°16'0 0.0 27.8
2014-Aug-31 18:38N 27°40' W 037°16'1 1.0 27.8
2014-Aug-31 17:57N 27°39' W 037°15'0 0.0 27.8
2014-Aug-31 16:53N 27°39' W 037°15'1 1.0 27.7
2014-Aug-31 16:20N 27°40' W 037°15'0 0.3 27.7
2014-Aug-31 14:38N 27°40' W 037°15'0 0.0 27.7
2014-Aug-31 13:53N 27°40' W 037°15'0 0.1 27.7
2014-Aug-31 13:03N 27°40' W 037°15'0 0.4 27.6
2014-Aug-31 12:14N 27°40' W 037°15'0 2.2 27.6
2014-Aug-31 12:08N 27°40' W 037°14'118.3 27.6
2014-Aug-31 12:06N 27°40' W 037°15'0 0.2 27.6
2014-Aug-31 11:15N 27°40' W 037°15'0 0.0 27.6
2014-Aug-31 09:23N 27°40' W 037°15'0 0.9 27.5
2014-Aug-31 09:08N 27°40' W 037°15'0 5.0 27.5
2014-Aug-31 09:03N 27°40' W 037°15'0 0.0 27.5
2014-Aug-31 08:53N 27°40' W 037°15'0 0.0 27.5
2014-Aug-31 07:44N 27°40' W 037°15'0 0.5 27.5
2014-Aug-31 07:29N 27°41' W 037°15'0 6.5 27.5
2014-Aug-31 07:26N 27°40' W 037°15'0 2.5 27.5
2014-Aug-31 07:14N 27°41' W 037°15'0 0.0 27.5
2014-Aug-31 07:08N 27°41' W 037°15'0 0.0
2014-Aug-31 07:06N 27°41' W 037°15'0 0.0 27.6
2014-Aug-31 06:36N 27°41' W 037°15'1 1.1 27.6
2014-Aug-31 05:29N 27°40' W 037°16'0 0.0 27.6
2014-Aug-31 04:53N 27°40' W 037°16'1 0.6 27.6
2014-Aug-31 03:15N 27°39' W 037°15'0 0.1 27.7
2014-Aug-31 00:38N 27°39' W 037°15'0 0.5 27.8
2014-Aug-30 23:51N 27°39' W 037°16'0 4.4 27.9
2014-Aug-30 23:45N 27°40' W 037°15'0 0.0 27.9
2014-Aug-30 22:59N 27°40' W 037°15'1 5.3 27.9
2014-Aug-30 22:53N 27°40' W 037°15'0 0.1 27.9
2014-Aug-30 20:48N 27°39' W 037°15'0 0.4 28.1
2014-Aug-30 20:27N 27°40' W 037°15'0 0.0 28.1
2014-Aug-30 20:23N 27°40' W 037°15'0 0.0 28.2
2014-Aug-30 19:08N 27°40' W 037°15'1 3.2 28.3
2014-Aug-30 18:50N 27°40' W 037°14'0 1.0 28.4
2014-Aug-30 18:45N 27°40' W 037°14'1 0.5 28.4
2014-Aug-30 17:27N 27°40' W 037°15'1 2.5 28.6
2014-Aug-30 17:08N 27°40' W 037°14'0 0.0 28.5
2014-Aug-30 16:30N 27°40' W 037°14'0 0.2 28.5
2014-Aug-30 14:48N 27°40' W 037°14'1 0.4 28.2
2014-Aug-30 13:14N 27°41' W 037°14'0 0.0 27.9
2014-Aug-30 12:38N 27°41' W 037°14'0 0.0 27.8
2014-Aug-30 12:33N 27°41' W 037°14'0 3.2 27.8
2014-Aug-30 12:30N 27°41' W 037°14'0 0.2 27.8
2014-Aug-30 11:38N 27°41' W 037°14'0 5.8
2014-Aug-30 11:33N 27°41' W 037°14'0 0.0 27.6
2014-Aug-30 10:53N 27°41' W 037°14'1 6.1 27.6
2014-Aug-30 10:48N 27°41' W 037°14'0 0.0 27.6
2014-Aug-30 09:53N 27°41' W 037°14'0 0.7 27.5
2014-Aug-30 09:33N 27°41' W 037°14'0 0.9 27.5
2014-Aug-30 09:06N 27°40' W 037°14'0 0.3 27.5
2014-Aug-30 08:14N 27°40' W 037°14'0 1.1 27.5
2014-Aug-30 07:51N 27°40' W 037°14'1 1.4 27.5
2014-Aug-30 07:26N 27°41' W 037°15'0 3.3 27.5
2014-Aug-30 07:21N 27°41' W 037°15'0 1.1 27.5
2014-Aug-30 07:18N 27°41' W 037°15'0 0.0 27.5
2014-Aug-30 06:47N 27°41' W 037°15'0 1.4 27.5
2014-Aug-30 06:35N 27°41' W 037°15'0 0.6 27.5
2014-Aug-30 06:14N 27°40' W 037°14'0 0.0 27.5
2014-Aug-30 05:45N 27°40' W 037°14'0 0.0 27.5
2014-Aug-30 05:38N 27°40' W 037°14'0 0.0
2014-Aug-30 05:06N 27°40' W 037°14'110.9 27.5
2014-Aug-30 05:00N 27°39' W 037°15'0 0.3 27.5
2014-Aug-30 03:26N 27°39' W 037°15'0 0.0 27.6
2014-Aug-30 03:20N 27°39' W 037°15'0 0.0 27.6
2014-Aug-30 00:59N 27°39' W 037°15'0 0.4 27.8
2014-Aug-30 00:08N 27°39' W 037°15'010.9 27.8
2014-Aug-30 00:06N 27°39' W 037°15'0 0.0 27.8
2014-Aug-29 23:20N 27°39' W 037°15'0 1.0 27.9
2014-Aug-29 23:15N 27°39' W 037°15'1 9.2 27.9
2014-Aug-29 23:11N 27°39' W 037°14'0 0.0 27.9
2014-Aug-29 22:32N 27°39' W 037°14'0 2.1 27.9
2014-Aug-29 22:23N 27°39' W 037°14'0 0.0 27.9
2014-Aug-29 21:12N 27°39' W 037°14'1 1.7 27.9
2014-Aug-29 20:53N 27°39' W 037°14'0 0.0
2014-Aug-29 19:35N 27°39' W 037°14'0 3.1 28.1
2014-Aug-29 19:30N 27°39' W 037°14'0 0.0 28.1
2014-Aug-29 19:18N 27°39' W 037°14'1 1.7 28.2
2014-Aug-29 19:00N 27°39' W 037°14'0 0.0 28.2
2014-Aug-29 17:53N 27°39' W 037°14'1 1.1 28.2
2014-Aug-29 17:20N 27°39' W 037°13'0 0.7 28.2
2014-Aug-29 16:42N 27°39' W 037°13'0 0.1 28.2
2014-Aug-29 14:59N 27°39' W 037°14'0 0.0 27.9
2014-Aug-29 13:44N 27°39' W 037°14'0 0.3 27.7
2014-Aug-29 12:53N 27°39' W 037°13'1 0.7 27.6
2014-Aug-29 12:00N 27°39' W 037°14'0 1.8 27.5
2014-Aug-29 11:56N 27°39' W 037°14'0 0.0 27.5
2014-Aug-29 11:15N 27°39' W 037°14'0 1.5 27.4
2014-Aug-29 11:06N 27°39' W 037°14'0 0.0 27.4
2014-Aug-29 09:57N 27°39' W 037°14'1 8.0 27.3
2014-Aug-29 09:53N 27°39' W 037°14'0 0.1 27.3
2014-Aug-29 09:15N 27°39' W 037°14'0 0.1 27.3
2014-Aug-29 08:47N 27°39' W 037°14'0 0.1 27.3
2014-Aug-29 08:15N 27°39' W 037°14'0 0.6 27.4
2014-Aug-29 07:33N 27°39' W 037°13'0 0.4 27.4
2014-Aug-29 07:06N 27°39' W 037°13'1 1.9 27.4
2014-Aug-29 06:38N 27°39' W 037°14'0 1.2 27.4
2014-Aug-29 06:32N 27°39' W 037°14'0 0.2 27.4
2014-Aug-29 05:53N 27°39' W 037°14'0 7.5 27.4
2014-Aug-29 05:50N 27°39' W 037°14'0 0.0 27.4
2014-Aug-29 05:17N 27°39' W 037°14'0 4.4 27.4
2014-Aug-29 05:11N 27°39' W 037°14'0 0.0 27.4
2014-Aug-29 03:38N 27°39' W 037°14'0 0.0 27.5
2014-Aug-29 03:36N 27°39' W 037°14'125.2 27.5
2014-Aug-29 03:33N 27°37' W 037°14'0 0.0 27.5
2014-Aug-29 01:18N 27°37' W 037°14'0 0.0 27.6
2014-Aug-29 01:15N 27°37' W 037°14'1 1.3 27.6
2014-Aug-29 00:33N 27°37' W 037°15'0 0.1 27.6
2014-Aug-28 23:41N 27°37' W 037°15'1 1.2 27.6
2014-Aug-28 22:53N 27°37' W 037°14'0 4.8 27.6
2014-Aug-28 22:47N 27°37' W 037°14'0 0.0 27.6
2014-Aug-28 21:59N 27°37' W 037°14'110.6 27.7
2014-Aug-28 21:53N 27°37' W 037°13'0 0.1 27.7
2014-Aug-28 19:59N 27°37' W 037°13'0 1.0 28.3
2014-Aug-28 19:48N 27°37' W 037°13'0 0.3 28.3
2014-Aug-28 19:12N 27°37' W 037°13'0 0.0 28.5
2014-Aug-28 18:18N 27°37' W 037°13'0 0.1 28.5
2014-Aug-28 17:30N 27°37' W 037°13'0 7.1 28.5
2014-Aug-28 17:26N 27°37' W 037°13'0 0.7 28.5
2014-Aug-28 16:53N 27°37' W 037°12'1 0.4 28.5
2014-Aug-28 15:11N 27°36' W 037°12'110.1 27.7
2014-Aug-28 15:08N 27°37' W 037°13'1 0.5 27.7
2014-Aug-28 14:02N 27°36' W 037°12'0 0.2 27.6
2014-Aug-28 13:14N 27°36' W 037°12'1 0.6 27.4
2014-Aug-28 12:18N 27°37' W 037°12'0 1.2 27.3
2014-Aug-28 12:15N 27°37' W 037°12'0 0.0 27.3
2014-Aug-28 11:35N 27°37' W 037°12'0 2.4 27.2
2014-Aug-28 11:29N 27°37' W 037°12'0 0.2 27.2
2014-Aug-28 10:38N 27°37' W 037°12'0 0.0 27.1
2014-Aug-28 09:17N 27°37' W 037°12'0 0.1 27.1
2014-Aug-28 08:41N 27°37' W 037°12'0 0.3 27.1
2014-Aug-28 07:45N 27°37' W 037°11'0 3.7 27.1
2014-Aug-28 07:41N 27°37' W 037°12'0 1.6 27.1
2014-Aug-28 07:39N 27°37' W 037°12'0 0.0 27.1
2014-Aug-28 06:08N 27°37' W 037°12'0 1.3 27.2
2014-Aug-28 06:02N 27°37' W 037°12'0 0.0 27.2
2014-Aug-28 05:29N 27°37' W 037°12'0 2.6 27.2
2014-Aug-28 05:23N 27°36' W 037°12'0 0.1 27.2
2014-Aug-28 03:51N 27°37' W 037°12'0 1.6 27.2
2014-Aug-28 03:48N 27°37' W 037°12'110.3 27.2
2014-Aug-28 03:42N 27°36' W 037°11'0 0.0 27.2
2014-Aug-28 01:35N 27°36' W 037°11'0 0.3 27.3
2014-Aug-28 00:53N 27°36' W 037°11'0 0.2 27.3
2014-Aug-28 00:02N 27°36' W 037°11'0 0.4 27.3
2014-Aug-27 23:08N 27°35' W 037°11'0 6.4 27.3
2014-Aug-27 23:05N 27°35' W 037°11'1 1.4 27.3
2014-Aug-27 22:21N 27°35' W 037°10'0 0.2 27.3
2014-Aug-27 20:23N 27°36' W 037°10'0 0.0 27.5
2014-Aug-27 19:23N 27°36' W 037°10'0 0.2 27.6
2014-Aug-27 18:38N 27°35' W 037°10'0 0.2 27.7
2014-Aug-27 17:42N 27°35' W 037°10'0 1.1 27.6
2014-Aug-27 17:39N 27°35' W 037°10'0 0.7 27.6
2014-Aug-27 17:03N 27°35' W 037°09'0 0.0 27.6
2014-Aug-27 15:23N 27°35' W 037°09'1 0.5 27.4
2014-Aug-27 14:20N 27°35' W 037°09'0 0.3 27.3
2014-Aug-27 13:38N 27°35' W 037°09'1 8.0 27.3
2014-Aug-27 13:29N 27°35' W 037°08'0 0.0 27.3
2014-Aug-27 12:41N 27°35' W 037°08'0 0.5 27.2
2014-Aug-27 12:35N 27°35' W 037°08'0 0.5 27.2
2014-Aug-27 11:53N 27°35' W 037°07'110.7 27.1
2014-Aug-27 11:48N 27°36' W 037°08'0 0.5 27.1
2014-Aug-27 10:59N 27°36' W 037°08'1 0.5 27.0
2014-Aug-27 09:48N 27°36' W 037°08'1 0.3 27.0
2014-Aug-27 08:08N 27°36' W 037°07'0 2.4 27.0
2014-Aug-27 07:57N 27°37' W 037°07'0 0.4 27.0
2014-Aug-27 07:23N 27°37' W 037°07'0 0.0 27.1
2014-Aug-27 06:29N 27°37' W 037°07'0 1.6 27.1
2014-Aug-27 06:20N 27°36' W 037°07'0 1.8 27.1
2014-Aug-27 06:14N 27°37' W 037°07'0 0.0 27.1
2014-Aug-27 05:41N 27°37' W 037°07'0 9.7 27.1
2014-Aug-27 05:38N 27°36' W 037°07'0 0.0 27.1
2014-Aug-27 04:02N 27°36' W 037°07'0 2.0 27.2
2014-Aug-27 03:57N 27°36' W 037°08'114.9 27.2
2014-Aug-27 03:53N 27°35' W 037°07'0 0.0 27.2
2014-Aug-27 01:09N 27°35' W 037°07'0 0.0 27.2
2014-Aug-27 01:08N 27°35' W 037°07'0 0.0 27.2
2014-Aug-27 00:23N 27°35' W 037°07'0 1.6 27.2
2014-Aug-27 00:20N 27°35' W 037°07'0 0.6 27.2
2014-Aug-26 23:32N 27°35' W 037°07'0 5.3 27.3
2014-Aug-26 23:29N 27°35' W 037°08'0 3.8
2014-Aug-26 23:23N 27°35' W 037°07'1 1.0 27.3
2014-Aug-26 22:36N 27°35' W 037°08'1 0.7 27.4
2014-Aug-26 21:00N 27°35' W 037°07'0 2.3 27.5
2014-Aug-26 20:47N 27°35' W 037°06'1 0.5 27.5
2014-Aug-26 19:35N 27°35' W 037°06'1 2.1 27.6
2014-Aug-26 19:12N 27°35' W 037°06'0 0.0 27.6
2014-Aug-26 19:08N 27°35' W 037°06'1 7.1 27.6
2014-Aug-26 19:02N 27°35' W 037°06'0 0.0 27.6
2014-Aug-26 17:53N 27°35' W 037°06'0 0.6 27.7
2014-Aug-26 17:26N 27°35' W 037°05'0 2.4 27.7
2014-Aug-26 17:14N 27°35' W 037°05'0 4.8 27.8
2014-Aug-26 17:08N 27°35' W 037°05'1 0.4 27.8
2014-Aug-26 15:35N 27°35' W 037°05'1 0.5 27.6
2014-Aug-26 13:57N 27°34' W 037°04'1 0.6 27.4
2014-Aug-26 12:20N 27°35' W 037°03'110.0 27.1
2014-Aug-26 12:15N 27°35' W 037°03'1 1.0 27.1
2014-Aug-26 11:23N 27°36' W 037°03'0 0.0 27.0
2014-Aug-26 11:18N 27°36' W 037°03'0 0.1 27.0
2014-Aug-26 09:27N 27°36' W 037°03'0 0.0 27.0
2014-Aug-26 08:41N 27°36' W 037°03'1 1.0 27.0
2014-Aug-26 08:08N 27°37' W 037°03'124.1
2014-Aug-26 08:06N 27°37' W 037°03'0 0.0 27.1
2014-Aug-26 07:48N 27°37' W 037°03'0 0.3 27.1
2014-Aug-26 07:00N 27°37' W 037°03'0 0.9 27.1
2014-Aug-26 06:30N 27°37' W 037°04'0 0.5 27.1
2014-Aug-26 06:24N 27°37' W 037°04'0 0.4 27.1
2014-Aug-26 06:12N 27°37' W 037°03'0 0.3 27.1
2014-Aug-26 05:53N 27°37' W 037°04'111.8 27.1
2014-Aug-26 05:50N 27°37' W 037°04'0 0.1 27.1
2014-Aug-26 04:08N 27°37' W 037°04'126.0 27.2
2014-Aug-26 04:05N 27°35' W 037°05'0 0.0 27.2
2014-Aug-26 01:30N 27°35' W 037°05'0 0.0 27.2
2014-Aug-26 00:42N 27°35' W 037°05'0 0.4 27.3
2014-Aug-25 23:47N 27°35' W 037°04'0 0.0 27.3
2014-Aug-25 23:03N 27°35' W 037°04'1 4.7 27.3
2014-Aug-25 22:53N 27°34' W 037°04'0 0.0 27.3
2014-Aug-25 22:06N 27°34' W 037°04'1 0.9 27.4
2014-Aug-25 21:08N 27°35' W 037°04'1 0.6 27.4
2014-Aug-25 19:45N 27°35' W 037°03'0 7.8 27.5
2014-Aug-25 19:42N 27°35' W 037°03'0 0.0 27.5
2014-Aug-25 19:32N 27°35' W 037°03'0 0.0
2014-Aug-25 19:30N 27°35' W 037°03'0 2.7 27.5
2014-Aug-25 19:26N 27°35' W 037°03'0 0.0 27.5
2014-Aug-25 18:06N 27°35' W 037°03'0 3.2
2014-Aug-25 18:05N 27°35' W 037°03'1 3.0 27.6
2014-Aug-25 17:53N 27°35' W 037°04'0 0.0 27.6
2014-Aug-25 17:51N 27°35' W 037°04'1 1.6 27.6
2014-Aug-25 17:23N 27°34' W 037°03'0 8.5 27.6
2014-Aug-25 17:20N 27°34' W 037°03'0 0.0 27.6
2014-Aug-25 15:45N 27°34' W 037°03'1 0.5 27.6
2014-Aug-25 12:41N 27°34' W 037°01'0 0.0 27.3
2014-Aug-25 12:36N 27°34' W 037°01'0 1.1 27.3
2014-Aug-25 12:33N 27°34' W 037°01'0 4.8 27.3
2014-Aug-25 12:29N 27°35' W 037°01'0 0.1 27.3
2014-Aug-25 11:47N 27°35' W 037°01'0 1.6 27.2
2014-Aug-25 11:44N 27°35' W 037°01'0 1.9 27.2
2014-Aug-25 11:39N 27°35' W 037°01'0 0.6 27.2
2014-Aug-25 10:53N 27°35' W 037°01'1 0.6 27.2
2014-Aug-25 09:50N 27°36' W 037°00'0 0.0
2014-Aug-25 09:08N 27°36' W 037°00'0 0.6 27.1
2014-Aug-25 08:23N 27°36' W 037°00'0 1.6 27.1
2014-Aug-25 08:18N 27°36' W 037°00'0 0.3 27.1
2014-Aug-25 07:33N 27°36' W 037°01'0 0.2 27.2
2014-Aug-25 06:38N 27°36' W 037°01'0 9.8
2014-Aug-25 06:35N 27°37' W 037°01'0 0.2 27.1
2014-Aug-25 06:03N 27°37' W 037°01'0 2.6 27.1
2014-Aug-25 05:59N 27°37' W 037°01'1 0.4 27.1
2014-Aug-25 04:21N 27°37' W 037°01'1 9.0 27.1
2014-Aug-25 04:14N 27°36' W 037°02'0 0.0 27.1
2014-Aug-25 01:03N 27°36' W 037°02'0 1.3 27.3
2014-Aug-25 00:57N 27°36' W 037°02'0 0.2 27.3
2014-Aug-25 00:15N 27°36' W 037°02'0 2.9 27.3
2014-Aug-25 00:08N 27°35' W 037°02'0 0.0
2014-Aug-24 23:23N 27°35' W 037°02'0 2.4 27.3
2014-Aug-24 23:20N 27°35' W 037°02'0 3.6 27.3
2014-Aug-24 23:17N 27°36' W 037°02'0 0.3 27.3
2014-Aug-24 22:32N 27°35' W 037°02'0 0.0 27.4
2014-Aug-24 22:26N 27°35' W 037°02'0 1.2 27.4
2014-Aug-24 22:02N 27°36' W 037°02'1 1.8 27.4
2014-Aug-24 21:38N 27°35' W 037°01'0 0.0 27.4
2014-Aug-24 19:53N 27°35' W 037°01'1 0.3 27.6
2014-Aug-24 18:17N 27°35' W 037°01'0 0.4 27.6
2014-Aug-24 17:35N 27°35' W 037°01'0 0.2 27.6
2014-Aug-24 16:33N 27°35' W 037°01'1 0.8 27.6
2014-Aug-24 15:53N 27°35' W 037°01'1 0.6 27.6
2014-Aug-24 13:47N 27°35' W 037°00'0 0.0 27.2
2014-Aug-24 13:00N 27°35' W 037°00'0 2.1 27.2
2014-Aug-24 12:53N 27°35' W 036°60'0 0.0 27.1
2014-Aug-24 12:08N 27°35' W 036°60'0 1.7 27.0
2014-Aug-24 12:02N 27°35' W 037°00'0 3.2 27.0
2014-Aug-24 11:59N 27°35' W 036°60'0 0.4 27.0
2014-Aug-24 11:18N 27°35' W 036°60'0 2.1 27.0
2014-Aug-24 11:12N 27°35' W 036°60'0 0.0 27.0
2014-Aug-24 10:23N 27°35' W 036°60'0 0.0 26.9
2014-Aug-24 09:41N 27°35' W 036°60'1 0.4 26.9
2014-Aug-24 08:33N 27°35' W 036°59'0 0.4 26.9
2014-Aug-24 08:05N 27°35' W 036°60'0 0.2 26.9
2014-Aug-24 06:53N 27°35' W 036°60'0 0.9 26.9
2014-Aug-24 06:21N 27°36' W 036°60'0 0.6 27.0
2014-Aug-24 06:15N 27°36' W 036°60'1 4.4 27.0
2014-Aug-24 06:08N 27°36' W 037°00'0 0.0 27.0
2014-Aug-24 05:08N 27°36' W 037°00'0 0.0 27.0
2014-Aug-24 04:35N 27°36' W 037°00'0 2.0 27.0
2014-Aug-24 04:30N 27°36' W 037°00'1 6.0 27.0
2014-Aug-24 04:24N 27°35' W 037°00'0 0.0 27.0
2014-Aug-24 02:50N 27°35' W 037°00'0 0.0 27.0
2014-Aug-24 01:21N 27°35' W 037°00'0 4.9 27.0
2014-Aug-24 01:18N 27°35' W 037°01'0 0.4 27.0
2014-Aug-24 00:35N 27°35' W 037°01'   27.0
Track history (hours):
 
Tides and Currents Weather Stations Pressure Air Temp Water Temp Dewpoint Dewpoint Depression Visibility Wind Speed Wind Dir Waves Ship Positions

Ao Chao Yang 13516

Last reported at 2014-Sep-03 00:29 UTC. Time now 2014-Sep-03 02:18 UTC.
Position N 27°41' W 037°17'.

Length 20 m.

Type: Fishing. MMSI: 412469022.

Water temperature 27.9 ° C

Date/timePositionNaut miles runAvg speedWind from/ knotsBaromVisibWave heightAir tempDewpointWater temp
2014-Sep-03 00:29N 27°41' W 037°17'0 0.2 27.9
2014-Sep-02 22:48N 27°41' W 037°17'1 3.6 28.1
2014-Sep-02 22:38N 27°41' W 037°17'0 0.0 28.1
2014-Sep-02 21:53N 27°41' W 037°17'138.2
2014-Sep-02 21:51N 27°41' W 037°16'0 0.0 28.2
2014-Sep-02 20:29N 27°41' W 037°16'0 0.2 28.4
2014-Sep-02 19:53N 27°41' W 037°16'0 0.0
2014-Sep-02 19:36N 27°41' W 037°16'0 0.4 28.7
2014-Sep-02 18:53N 27°41' W 037°16'0 0.5 28.7
2014-Sep-02 18:15N 27°41' W 037°16'1 2.1 28.8
2014-Sep-02 17:53N 27°41' W 037°15'1 2.3 29.0
2014-Sep-02 17:35N 27°41' W 037°16'0 0.0 29.1
2014-Sep-02 16:30N 27°41' W 037°16'0 0.0 28.6
2014-Sep-02 15:53N 27°41' W 037°16'0 0.2 28.7
2014-Sep-02 14:14N 27°41' W 037°16'0 0.3 28.4
2014-Sep-02 14:00N 27°41' W 037°16'0 0.2 28.4
2014-Sep-02 12:18N 27°42' W 037°16'0 0.0 27.9
2014-Sep-02 12:12N 27°42' W 037°16'0 0.0 27.9
2014-Sep-02 11:32N 27°42' W 037°16'1 5.4 27.7
2014-Sep-02 11:26N 27°41' W 037°16'0 0.0 27.7
2014-Sep-02 10:38N 27°41' W 037°16'0 3.2
2014-Sep-02 10:35N 27°41' W 037°16'0 0.0 27.6
2014-Sep-02 09:57N 27°41' W 037°16'0 3.0 27.6
2014-Sep-02 09:53N 27°41' W 037°17'0 0.0 27.6
2014-Sep-02 08:29N 27°41' W 037°17'0 0.3 27.6
2014-Sep-02 06:47N 27°41' W 037°17'0 9.9 27.6
2014-Sep-02 06:44N 27°41' W 037°17'0 0.0 27.6
2014-Sep-02 06:41N 27°41' W 037°17'0 0.1 27.6
2014-Sep-02 06:17N 27°41' W 037°17'0 0.0 27.6
2014-Sep-02 06:08N 27°41' W 037°17'0 0.1 27.6
2014-Sep-02 04:33N 27°41' W 037°17'0 2.2 27.6
2014-Sep-02 04:27N 27°41' W 037°16'0 0.1 27.6
2014-Sep-02 01:33N 27°42' W 037°16'1 0.8 27.6
2014-Sep-02 00:48N 27°41' W 037°16'0 0.0 27.6
2014-Sep-01 23:59N 27°41' W 037°16'0 0.0 27.7
2014-Sep-01 23:53N 27°41' W 037°16'0 0.5 27.7
2014-Sep-01 23:06N 27°41' W 037°16'113.6 27.8
2014-Sep-01 23:02N 27°41' W 037°15'0 3.6 27.8
2014-Sep-01 22:59N 27°41' W 037°15'0 0.1 27.8
2014-Sep-01 22:17N 27°41' W 037°15'1 9.2 27.8
2014-Sep-01 22:12N 27°40' W 037°15'0 0.0 27.8
2014-Sep-01 20:06N 27°40' W 037°15'230.9 28.0
2014-Sep-01 20:03N 27°41' W 037°17'0 0.0 28.0
2014-Sep-01 19:23N 27°41' W 037°17'2 1.8
2014-Sep-01 18:27N 27°41' W 037°15'214.7 28.2
2014-Sep-01 18:20N 27°41' W 037°17'1 1.5 28.2
2014-Sep-01 17:47N 27°42' W 037°16'1 0.8 28.2
2014-Sep-01 16:44N 27°42' W 037°16'0 0.0 28.1
2014-Sep-01 16:08N 27°42' W 037°16'0 0.1 27.9
2014-Sep-01 14:26N 27°42' W 037°15'0 0.9 27.7
2014-Sep-01 14:18N 27°42' W 037°16'0 0.6 27.7
2014-Sep-01 13:32N 27°42' W 037°15'1 0.6 27.7
2014-Sep-01 12:32N 27°42' W 037°16'0 0.0 27.6
2014-Sep-01 11:53N 27°42' W 037°16'0 1.6 27.5
2014-Sep-01 11:47N 27°41' W 037°16'0 0.0 27.5
2014-Sep-01 11:00N 27°41' W 037°16'0 0.0 27.5
2014-Sep-01 10:57N 27°41' W 037°16'0 0.0 27.5
2014-Sep-01 10:53N 27°41' W 037°16'0 0.0 27.5
2014-Sep-01 08:53N 27°41' W 037°16'1 4.5 27.4
2014-Sep-01 08:45N 27°42' W 037°17'0 5.8 27.4
2014-Sep-01 08:42N 27°42' W 037°17'1 0.5 27.4
2014-Sep-01 07:08N 27°41' W 037°16'0 3.3 27.4
2014-Sep-01 07:03N 27°41' W 037°17'1 9.9 27.4
2014-Sep-01 06:57N 27°41' W 037°15'0 0.0 27.4
2014-Sep-01 06:26N 27°41' W 037°15'1 8.7 27.5
2014-Sep-01 06:20N 27°41' W 037°16'1 0.6 27.5
2014-Sep-01 04:44N 27°41' W 037°16'0 0.0 27.5
2014-Sep-01 04:38N 27°41' W 037°16'0 0.0 27.5
2014-Sep-01 03:03N 27°41' W 037°16'0 7.9 27.5
2014-Sep-01 03:00N 27°41' W 037°16'1 0.3 27.5
2014-Sep-01 01:06N 27°40' W 037°16'0 0.0 27.5
2014-Sep-01 00:18N 27°40' W 037°16'0 0.4 27.6
2014-Aug-31 23:30N 27°40' W 037°16'0 5.5 27.6
2014-Aug-31 23:26N 27°40' W 037°16'1 0.7 27.6
2014-Aug-31 22:33N 27°40' W 037°15'0 0.0 27.6
2014-Aug-31 22:30N 27°40' W 037°15'0 0.2 27.6
2014-Aug-31 20:23N 27°40' W 037°16'0 0.0 27.7
2014-Aug-31 20:14N 27°40' W 037°16'0 0.0 27.7
2014-Aug-31 19:53N 27°40' W 037°16'0 0.0 27.8
2014-Aug-31 18:45N 27°40' W 037°16'0 0.0 27.8
2014-Aug-31 18:38N 27°40' W 037°16'1 1.0 27.8
2014-Aug-31 17:57N 27°39' W 037°15'0 0.0 27.8
2014-Aug-31 16:53N 27°39' W 037°15'1 1.0 27.7
2014-Aug-31 16:20N 27°40' W 037°15'0 0.3 27.7
2014-Aug-31 14:38N 27°40' W 037°15'0 0.0 27.7
2014-Aug-31 13:53N 27°40' W 037°15'0 0.1 27.7
2014-Aug-31 13:03N 27°40' W 037°15'0 0.4 27.6
2014-Aug-31 12:14N 27°40' W 037°15'0 2.2 27.6
2014-Aug-31 12:08N 27°40' W 037°14'118.3 27.6
2014-Aug-31 12:06N 27°40' W 037°15'0 0.2 27.6
2014-Aug-31 11:15N 27°40' W 037°15'0 0.0 27.6
2014-Aug-31 09:23N 27°40' W 037°15'0 0.9 27.5
2014-Aug-31 09:08N 27°40' W 037°15'0 5.0 27.5
2014-Aug-31 09:03N 27°40' W 037°15'0 0.0 27.5
2014-Aug-31 08:53N 27°40' W 037°15'0 0.0 27.5
2014-Aug-31 07:44N 27°40' W 037°15'0 0.5 27.5
2014-Aug-31 07:29N 27°41' W 037°15'0 6.5 27.5
2014-Aug-31 07:26N 27°40' W 037°15'0 2.5 27.5
2014-Aug-31 07:14N 27°41' W 037°15'0 0.0 27.5
2014-Aug-31 07:08N 27°41' W 037°15'0 0.0
2014-Aug-31 07:06N 27°41' W 037°15'0 0.0 27.6
2014-Aug-31 06:36N 27°41' W 037°15'1 1.1 27.6
2014-Aug-31 05:29N 27°40' W 037°16'0 0.0 27.6
2014-Aug-31 04:53N 27°40' W 037°16'1 0.6 27.6
2014-Aug-31 03:15N 27°39' W 037°15'0 0.1 27.7
2014-Aug-31 00:38N 27°39' W 037°15'0 0.5 27.8
2014-Aug-30 23:51N 27°39' W 037°16'0 4.4 27.9
2014-Aug-30 23:45N 27°40' W 037°15'0 0.0 27.9
2014-Aug-30 22:59N 27°40' W 037°15'1 5.3 27.9
2014-Aug-30 22:53N 27°40' W 037°15'0 0.1 27.9
2014-Aug-30 20:48N 27°39' W 037°15'0 0.4 28.1
2014-Aug-30 20:27N 27°40' W 037°15'0 0.0 28.1
2014-Aug-30 20:23N 27°40' W 037°15'0 0.0 28.2
2014-Aug-30 19:08N 27°40' W 037°15'1 3.2 28.3
2014-Aug-30 18:50N 27°40' W 037°14'0 1.0 28.4
2014-Aug-30 18:45N 27°40' W 037°14'1 0.5 28.4
2014-Aug-30 17:27N 27°40' W 037°15'1 2.5 28.6
2014-Aug-30 17:08N 27°40' W 037°14'0 0.0 28.5
2014-Aug-30 16:30N 27°40' W 037°14'0 0.2 28.5
2014-Aug-30 14:48N 27°40' W 037°14'1 0.4 28.2
2014-Aug-30 13:14N 27°41' W 037°14'0 0.0 27.9
2014-Aug-30 12:38N 27°41' W 037°14'0 0.0 27.8
2014-Aug-30 12:33N 27°41' W 037°14'0 3.2 27.8
2014-Aug-30 12:30N 27°41' W 037°14'0 0.2 27.8
2014-Aug-30 11:38N 27°41' W 037°14'0 5.8
2014-Aug-30 11:33N 27°41' W 037°14'0 0.0 27.6
2014-Aug-30 10:53N 27°41' W 037°14'1 6.1 27.6
2014-Aug-30 10:48N 27°41' W 037°14'0 0.0 27.6
2014-Aug-30 09:53N 27°41' W 037°14'0 0.7 27.5
2014-Aug-30 09:33N 27°41' W 037°14'0 0.9 27.5
2014-Aug-30 09:06N 27°40' W 037°14'0 0.3 27.5
2014-Aug-30 08:14N 27°40' W 037°14'0 1.1 27.5
2014-Aug-30 07:51N 27°40' W 037°14'1 1.4 27.5
2014-Aug-30 07:26N 27°41' W 037°15'0 3.3 27.5
2014-Aug-30 07:21N 27°41' W 037°15'0 1.1 27.5
2014-Aug-30 07:18N 27°41' W 037°15'0 0.0 27.5
2014-Aug-30 06:47N 27°41' W 037°15'0 1.4 27.5
2014-Aug-30 06:35N 27°41' W 037°15'0 0.6 27.5
2014-Aug-30 06:14N 27°40' W 037°14'0 0.0 27.5
2014-Aug-30 05:45N 27°40' W 037°14'0 0.0 27.5
2014-Aug-30 05:38N 27°40' W 037°14'0 0.0
2014-Aug-30 05:06N 27°40' W 037°14'110.9 27.5
2014-Aug-30 05:00N 27°39' W 037°15'0 0.3 27.5
2014-Aug-30 03:26N 27°39' W 037°15'0 0.0 27.6
2014-Aug-30 03:20N 27°39' W 037°15'0 0.0 27.6
2014-Aug-30 00:59N 27°39' W 037°15'0 0.4 27.8
2014-Aug-30 00:08N 27°39' W 037°15'010.9 27.8
2014-Aug-30 00:06N 27°39' W 037°15'0 0.0 27.8
2014-Aug-29 23:20N 27°39' W 037°15'0 1.0 27.9
2014-Aug-29 23:15N 27°39' W 037°15'1 9.2 27.9
2014-Aug-29 23:11N 27°39' W 037°14'0 0.0 27.9
2014-Aug-29 22:32N 27°39' W 037°14'0 2.1 27.9
2014-Aug-29 22:23N 27°39' W 037°14'0 0.0 27.9
2014-Aug-29 21:12N 27°39' W 037°14'1 1.7 27.9
2014-Aug-29 20:53N 27°39' W 037°14'0 0.0
2014-Aug-29 19:35N 27°39' W 037°14'0 3.1 28.1
2014-Aug-29 19:30N 27°39' W 037°14'0 0.0 28.1
2014-Aug-29 19:18N 27°39' W 037°14'1 1.7 28.2
2014-Aug-29 19:00N 27°39' W 037°14'0 0.0 28.2
2014-Aug-29 17:53N 27°39' W 037°14'1 1.1 28.2
2014-Aug-29 17:20N 27°39' W 037°13'0 0.7 28.2
2014-Aug-29 16:42N 27°39' W 037°13'0 0.1 28.2
2014-Aug-29 14:59N 27°39' W 037°14'0 0.0 27.9
2014-Aug-29 13:44N 27°39' W 037°14'0 0.3 27.7
2014-Aug-29 12:53N 27°39' W 037°13'1 0.7 27.6
2014-Aug-29 12:00N 27°39' W 037°14'0 1.8 27.5
2014-Aug-29 11:56N 27°39' W 037°14'0 0.0 27.5
2014-Aug-29 11:15N 27°39' W 037°14'0 1.5 27.4
2014-Aug-29 11:06N 27°39' W 037°14'0 0.0 27.4
2014-Aug-29 09:57N 27°39' W 037°14'1 8.0 27.3
2014-Aug-29 09:53N 27°39' W 037°14'0 0.1 27.3
2014-Aug-29 09:15N 27°39' W 037°14'0 0.1 27.3
2014-Aug-29 08:47N 27°39' W 037°14'0 0.1 27.3
2014-Aug-29 08:15N 27°39' W 037°14'0 0.6 27.4
2014-Aug-29 07:33N 27°39' W 037°13'0 0.4 27.4
2014-Aug-29 07:06N 27°39' W 037°13'1 1.9 27.4
2014-Aug-29 06:38N 27°39' W 037°14'0 1.2 27.4
2014-Aug-29 06:32N 27°39' W 037°14'0 0.2 27.4
2014-Aug-29 05:53N 27°39' W 037°14'0 7.5 27.4
2014-Aug-29 05:50N 27°39' W 037°14'0 0.0 27.4
2014-Aug-29 05:17N 27°39' W 037°14'0 4.4 27.4
2014-Aug-29 05:11N 27°39' W 037°14'0 0.0 27.4
2014-Aug-29 03:38N 27°39' W 037°14'0 0.0 27.5
2014-Aug-29 03:36N 27°39' W 037°14'125.2 27.5
2014-Aug-29 03:33N 27°37' W 037°14'0 0.0 27.5
2014-Aug-29 01:18N 27°37' W 037°14'0 0.0 27.6
2014-Aug-29 01:15N 27°37' W 037°14'1 1.3 27.6
2014-Aug-29 00:33N 27°37' W 037°15'0 0.1 27.6
2014-Aug-28 23:41N 27°37' W 037°15'1 1.2 27.6
2014-Aug-28 22:53N 27°37' W 037°14'0 4.8 27.6
2014-Aug-28 22:47N 27°37' W 037°14'0 0.0 27.6
2014-Aug-28 21:59N 27°37' W 037°14'110.6 27.7
2014-Aug-28 21:53N 27°37' W 037°13'0 0.1 27.7
2014-Aug-28 19:59N 27°37' W 037°13'0 1.0 28.3
2014-Aug-28 19:48N 27°37' W 037°13'0 0.3 28.3
2014-Aug-28 19:12N 27°37' W 037°13'0 0.0 28.5
2014-Aug-28 18:18N 27°37' W 037°13'0 0.1 28.5
2014-Aug-28 17:30N 27°37' W 037°13'0 7.1 28.5
2014-Aug-28 17:26N 27°37' W 037°13'0 0.7 28.5
2014-Aug-28 16:53N 27°37' W 037°12'1 0.4 28.5
2014-Aug-28 15:11N 27°36' W 037°12'110.1 27.7
2014-Aug-28 15:08N 27°37' W 037°13'1 0.5 27.7
2014-Aug-28 14:02N 27°36' W 037°12'0 0.2 27.6
2014-Aug-28 13:14N 27°36' W 037°12'1 0.6 27.4
2014-Aug-28 12:18N 27°37' W 037°12'0 1.2 27.3
2014-Aug-28 12:15N 27°37' W 037°12'0 0.0 27.3
2014-Aug-28 11:35N 27°37' W 037°12'0 2.4 27.2
2014-Aug-28 11:29N 27°37' W 037°12'0 0.2 27.2
2014-Aug-28 10:38N 27°37' W 037°12'0 0.0 27.1
2014-Aug-28 09:17N 27°37' W 037°12'0 0.1 27.1
2014-Aug-28 08:41N 27°37' W 037°12'0 0.3 27.1
2014-Aug-28 07:45N 27°37' W 037°11'0 3.7 27.1
2014-Aug-28 07:41N 27°37' W 037°12'0 1.6 27.1
2014-Aug-28 07:39N 27°37' W 037°12'0 0.0 27.1
2014-Aug-28 06:08N 27°37' W 037°12'0 1.3 27.2
2014-Aug-28 06:02N 27°37' W 037°12'0 0.0 27.2
2014-Aug-28 05:29N 27°37' W 037°12'0 2.6 27.2
2014-Aug-28 05:23N 27°36' W 037°12'0 0.1 27.2
2014-Aug-28 03:51N 27°37' W 037°12'0 1.6 27.2
2014-Aug-28 03:48N 27°37' W 037°12'110.3 27.2
2014-Aug-28 03:42N 27°36' W 037°11'0 0.0 27.2
2014-Aug-28 01:35N 27°36' W 037°11'0 0.3 27.3
2014-Aug-28 00:53N 27°36' W 037°11'0 0.2 27.3
2014-Aug-28 00:02N 27°36' W 037°11'0 0.4 27.3
2014-Aug-27 23:08N 27°35' W 037°11'0 6.4 27.3
2014-Aug-27 23:05N 27°35' W 037°11'1 1.4 27.3
2014-Aug-27 22:21N 27°35' W 037°10'0 0.2 27.3
2014-Aug-27 20:23N 27°36' W 037°10'0 0.0 27.5
2014-Aug-27 19:23N 27°36' W 037°10'0 0.2 27.6
2014-Aug-27 18:38N 27°35' W 037°10'0 0.2 27.7
2014-Aug-27 17:42N 27°35' W 037°10'0 1.1 27.6
2014-Aug-27 17:39N 27°35' W 037°10'0 0.7 27.6
2014-Aug-27 17:03N 27°35' W 037°09'0 0.0 27.6
2014-Aug-27 15:23N 27°35' W 037°09'1 0.5 27.4
2014-Aug-27 14:20N 27°35' W 037°09'0 0.3 27.3
2014-Aug-27 13:38N 27°35' W 037°09'1 8.0 27.3
2014-Aug-27 13:29N 27°35' W 037°08'0 0.0 27.3
2014-Aug-27 12:41N 27°35' W 037°08'0 0.5 27.2
2014-Aug-27 12:35N 27°35' W 037°08'0 0.5 27.2
2014-Aug-27 11:53N 27°35' W 037°07'110.7 27.1
2014-Aug-27 11:48N 27°36' W 037°08'0 0.5 27.1
2014-Aug-27 10:59N 27°36' W 037°08'1 0.5 27.0
2014-Aug-27 09:48N 27°36' W 037°08'1 0.3 27.0
2014-Aug-27 08:08N 27°36' W 037°07'0 2.4 27.0
2014-Aug-27 07:57N 27°37' W 037°07'0 0.4 27.0
2014-Aug-27 07:23N 27°37' W 037°07'0 0.0 27.1
2014-Aug-27 06:29N 27°37' W 037°07'0 1.6 27.1
2014-Aug-27 06:20N 27°36' W 037°07'0 1.8 27.1
2014-Aug-27 06:14N 27°37' W 037°07'0 0.0 27.1
2014-Aug-27 05:41N 27°37' W 037°07'0 9.7 27.1
2014-Aug-27 05:38N 27°36' W 037°07'0 0.0 27.1
2014-Aug-27 04:02N 27°36' W 037°07'0 2.0 27.2
2014-Aug-27 03:57N 27°36' W 037°08'114.9 27.2
2014-Aug-27 03:53N 27°35' W 037°07'0 0.0 27.2
2014-Aug-27 01:09N 27°35' W 037°07'0 0.0 27.2
2014-Aug-27 01:08N 27°35' W 037°07'0 0.0 27.2
2014-Aug-27 00:23N 27°35' W 037°07'0 1.6 27.2
2014-Aug-27 00:20N 27°35' W 037°07'0 0.6 27.2
2014-Aug-26 23:32N 27°35' W 037°07'0 5.3 27.3
2014-Aug-26 23:29N 27°35' W 037°08'0 3.8
2014-Aug-26 23:23N 27°35' W 037°07'1 1.0 27.3
2014-Aug-26 22:36N 27°35' W 037°08'1 0.7 27.4
2014-Aug-26 21:00N 27°35' W 037°07'0 2.3 27.5
2014-Aug-26 20:47N 27°35' W 037°06'1 0.5 27.5
2014-Aug-26 19:35N 27°35' W 037°06'1 2.1 27.6
2014-Aug-26 19:12N 27°35' W 037°06'0 0.0 27.6
2014-Aug-26 19:08N 27°35' W 037°06'1 7.1 27.6
2014-Aug-26 19:02N 27°35' W 037°06'0 0.0 27.6
2014-Aug-26 17:53N 27°35' W 037°06'0 0.6 27.7
2014-Aug-26 17:26N 27°35' W 037°05'0 2.4 27.7
2014-Aug-26 17:14N 27°35' W 037°05'0 4.8 27.8
2014-Aug-26 17:08N 27°35' W 037°05'1 0.4 27.8
2014-Aug-26 15:35N 27°35' W 037°05'1 0.5 27.6
2014-Aug-26 13:57N 27°34' W 037°04'1 0.6 27.4
2014-Aug-26 12:20N 27°35' W 037°03'110.0 27.1
2014-Aug-26 12:15N 27°35' W 037°03'1 1.0 27.1
2014-Aug-26 11:23N 27°36' W 037°03'0 0.0 27.0
2014-Aug-26 11:18N 27°36' W 037°03'0 0.1 27.0
2014-Aug-26 09:27N 27°36' W 037°03'0 0.0 27.0
2014-Aug-26 08:41N 27°36' W 037°03'1 1.0 27.0
2014-Aug-26 08:08N 27°37' W 037°03'124.1
2014-Aug-26 08:06N 27°37' W 037°03'0 0.0 27.1
2014-Aug-26 07:48N 27°37' W 037°03'0 0.3 27.1
2014-Aug-26 07:00N 27°37' W 037°03'0 0.9 27.1
2014-Aug-26 06:30N 27°37' W 037°04'0 0.5 27.1
2014-Aug-26 06:24N 27°37' W 037°04'0 0.4 27.1
2014-Aug-26 06:12N 27°37' W 037°03'0 0.3 27.1
2014-Aug-26 05:53N 27°37' W 037°04'111.8 27.1
2014-Aug-26 05:50N 27°37' W 037°04'0 0.1 27.1
2014-Aug-26 04:08N 27°37' W 037°04'126.0 27.2
2014-Aug-26 04:05N 27°35' W 037°05'0 0.0 27.2
2014-Aug-26 01:30N 27°35' W 037°05'0 0.0 27.2
2014-Aug-26 00:42N 27°35' W 037°05'0 0.4 27.3
2014-Aug-25 23:47N 27°35' W 037°04'0 0.0 27.3
2014-Aug-25 23:03N 27°35' W 037°04'1 4.7 27.3
2014-Aug-25 22:53N 27°34' W 037°04'0 0.0 27.3
2014-Aug-25 22:06N 27°34' W 037°04'1 0.9 27.4
2014-Aug-25 21:08N 27°35' W 037°04'1 0.6 27.4
2014-Aug-25 19:45N 27°35' W 037°03'0 7.8 27.5
2014-Aug-25 19:42N 27°35' W 037°03'0 0.0 27.5
2014-Aug-25 19:32N 27°35' W 037°03'0 0.0
2014-Aug-25 19:30N 27°35' W 037°03'0 2.7 27.5
2014-Aug-25 19:26N 27°35' W 037°03'0 0.0 27.5
2014-Aug-25 18:06N 27°35' W 037°03'0 3.2
2014-Aug-25 18:05N 27°35' W 037°03'1 3.0 27.6
2014-Aug-25 17:53N 27°35' W 037°04'0 0.0 27.6
2014-Aug-25 17:51N 27°35' W 037°04'1 1.6 27.6
2014-Aug-25 17:23N 27°34' W 037°03'0 8.5 27.6
2014-Aug-25 17:20N 27°34' W 037°03'0 0.0 27.6
2014-Aug-25 15:45N 27°34' W 037°03'1 0.5 27.6
2014-Aug-25 12:41N 27°34' W 037°01'0 0.0 27.3
2014-Aug-25 12:36N 27°34' W 037°01'0 1.1 27.3
2014-Aug-25 12:33N 27°34' W 037°01'0 4.8 27.3
2014-Aug-25 12:29N 27°35' W 037°01'0 0.1 27.3
2014-Aug-25 11:47N 27°35' W 037°01'0 1.6 27.2
2014-Aug-25 11:44N 27°35' W 037°01'0 1.9 27.2
2014-Aug-25 11:39N 27°35' W 037°01'0 0.6 27.2
2014-Aug-25 10:53N 27°35' W 037°01'1 0.6 27.2
2014-Aug-25 09:50N 27°36' W 037°00'0 0.0
2014-Aug-25 09:08N 27°36' W 037°00'0 0.6 27.1
2014-Aug-25 08:23N 27°36' W 037°00'0 1.6 27.1
2014-Aug-25 08:18N 27°36' W 037°00'0 0.3 27.1
2014-Aug-25 07:33N 27°36' W 037°01'0 0.2 27.2
2014-Aug-25 06:38N 27°36' W 037°01'0 9.8
2014-Aug-25 06:35N 27°37' W 037°01'0 0.2 27.1
2014-Aug-25 06:03N 27°37' W 037°01'0 2.6 27.1
2014-Aug-25 05:59N 27°37' W 037°01'1 0.4 27.1
2014-Aug-25 04:21N 27°37' W 037°01'1 9.0 27.1
2014-Aug-25 04:14N 27°36' W 037°02'0 0.0 27.1
2014-Aug-25 01:03N 27°36' W 037°02'0 1.3 27.3
2014-Aug-25 00:57N 27°36' W 037°02'0 0.2 27.3
2014-Aug-25 00:15N 27°36' W 037°02'0 2.9 27.3
2014-Aug-25 00:08N 27°35' W 037°02'0 0.0
2014-Aug-24 23:23N 27°35' W 037°02'0 2.4 27.3
2014-Aug-24 23:20N 27°35' W 037°02'0 3.6 27.3
2014-Aug-24 23:17N 27°36' W 037°02'0 0.3 27.3
2014-Aug-24 22:32N 27°35' W 037°02'0 0.0 27.4
2014-Aug-24 22:26N 27°35' W 037°02'0 1.2 27.4
2014-Aug-24 22:02N 27°36' W 037°02'1 1.8 27.4
2014-Aug-24 21:38N 27°35' W 037°01'0 0.0 27.4
2014-Aug-24 19:53N 27°35' W 037°01'1 0.3 27.6
2014-Aug-24 18:17N 27°35' W 037°01'0 0.4 27.6
2014-Aug-24 17:35N 27°35' W 037°01'0 0.2 27.6
2014-Aug-24 16:33N 27°35' W 037°01'1 0.8 27.6
2014-Aug-24 15:53N 27°35' W 037°01'1 0.6 27.6
2014-Aug-24 13:47N 27°35' W 037°00'0 0.0 27.2
2014-Aug-24 13:00N 27°35' W 037°00'0 2.1 27.2
2014-Aug-24 12:53N 27°35' W 036°60'0 0.0 27.1
2014-Aug-24 12:08N 27°35' W 036°60'0 1.7 27.0
2014-Aug-24 12:02N 27°35' W 037°00'0 3.2 27.0
2014-Aug-24 11:59N 27°35' W 036°60'0 0.4 27.0
2014-Aug-24 11:18N 27°35' W 036°60'0 2.1 27.0
2014-Aug-24 11:12N 27°35' W 036°60'0 0.0 27.0
2014-Aug-24 10:23N 27°35' W 036°60'0 0.0 26.9
2014-Aug-24 09:41N 27°35' W 036°60'1 0.4 26.9
2014-Aug-24 08:33N 27°35' W 036°59'0 0.4 26.9
2014-Aug-24 08:05N 27°35' W 036°60'0 0.2 26.9
2014-Aug-24 06:53N 27°35' W 036°60'0 0.9 26.9
2014-Aug-24 06:21N 27°36' W 036°60'0 0.6 27.0
2014-Aug-24 06:15N 27°36' W 036°60'1 4.4 27.0
2014-Aug-24 06:08N 27°36' W 037°00'0 0.0 27.0
2014-Aug-24 05:08N 27°36' W 037°00'0 0.0 27.0
2014-Aug-24 04:35N 27°36' W 037°00'0 2.0 27.0
2014-Aug-24 04:30N 27°36' W 037°00'1 6.0 27.0
2014-Aug-24 04:24N 27°35' W 037°00'0 0.0 27.0
2014-Aug-24 02:50N 27°35' W 037°00'0 0.0 27.0
2014-Aug-24 01:21N 27°35' W 037°00'0 4.9 27.0
2014-Aug-24 01:18N 27°35' W 037°01'0 0.4 27.0
2014-Aug-24 00:35N 27°35' W 037°01'   27.0

Dump ship's entire track history